Time;durP1;ratioP1;P1;durP2;ratioP2;P2;SDS_P1;SDS_P2;PMS_P1;PMS_P2;Temp;Humidity;BMP_temperature;BMP_pressure;BME280_temperature;BME280_humidity;BME280_pressure;Samples;Min_cycle;Max_cycle;Signal;HPM_P1;HPM_P2
2022/02/03 00:00:47;;;;;;;98.30;43.25;;;;;;;1.14;100.00;96842.91;5000768;28;20037;-78
2022/02/03 00:03:36;;;;;;;81.93;38.28;;;;;;;0.94;100.00;96840.16;5013738;28;20033;-78
2022/02/03 00:06:08;;;;;;;78.75;37.78;;;;;;;0.90;100.00;96849.94;5006365;28;20025;-79
2022/02/03 00:16:56;;;;;;;101.18;46.60;;;;;;;0.97;100.00;96858.47;5032405;28;20032;-78
2022/02/03 00:22:19;;;;;;;89.22;43.13;;;;;;;0.94;100.00;96842.78;5013214;28;20408;-78
2022/02/03 00:25:11;;;;;;;92.68;43.38;;;;;;;1.06;100.00;96864.28;4998978;28;20120;-79
2022/02/03 00:30:56;;;;;;;105.35;46.78;;;;;;;1.16;100.00;96864.81;5032285;28;20132;-78
2022/02/03 00:34:02;;;;;;;110.68;50.08;;;;;;;1.30;100.00;96870.44;5014414;28;20029;-78
2022/02/03 00:36:19;;;;;;;106.55;50.00;;;;;;;1.24;100.00;96862.75;5015820;28;20390;-78
2022/02/03 00:52:22;;;;;;;111.85;50.85;;;;;;;1.05;100.00;96880.97;5014533;28;20416;-77
2022/02/03 00:54:48;;;;;;;111.38;52.50;;;;;;;1.05;100.00;96882.75;4988491;28;20040;-76
2022/02/03 00:57:28;;;;;;;121.55;55.03;;;;;;;1.09;100.00;96890.50;5013779;28;20027;-77
2022/02/03 01:00:06;;;;;;;114.55;51.75;;;;;;;0.94;100.00;96869.97;4997116;28;20044;-77
2022/02/03 01:02:37;;;;;;;112.18;50.97;;;;;;;1.11;100.00;96881.69;4997330;28;20072;-78
2022/02/03 01:05:04;;;;;;;108.35;52.40;;;;;;;1.22;100.00;96882.16;4997165;28;20029;-78
2022/02/03 01:07:36;;;;;;;113.03;51.30;;;;;;;1.16;100.00;96879.75;4997665;28;20405;-80
2022/02/03 01:10:10;;;;;;;117.88;52.90;;;;;;;1.13;100.00;96877.22;4994463;28;20497;-79
2022/02/03 01:12:51;;;;;;;109.28;51.70;;;;;;;1.16;100.00;96864.81;4998235;28;20552;-78
2022/02/03 01:15:29;;;;;;;113.85;51.50;;;;;;;1.21;100.00;96869.91;5004100;28;20033;-79
2022/02/03 01:37:20;;;;;;;130.00;59.95;;;;;;;1.62;100.00;96891.19;5006319;28;20044;-78
2022/02/03 01:43:20;;;;;;;131.32;60.22;;;;;;;1.62;100.00;96882.41;5020159;28;20468;-80
2022/02/03 01:53:45;;;;;;;134.35;59.95;;;;;;;1.56;100.00;96885.28;5000483;28;20040;-78
2022/02/03 01:56:16;;;;;;;133.65;60.25;;;;;;;1.50;100.00;96886.38;4997401;28;20030;-79
2022/02/03 01:58:44;;;;;;;119.47;59.38;;;;;;;1.53;100.00;96898.56;4997282;28;20034;-79
2022/02/03 02:01:13;;;;;;;131.60;59.08;;;;;;;1.44;100.00;96897.13;5016143;28;20037;-79
2022/02/03 02:04:11;;;;;;;129.65;58.42;;;;;;;1.47;100.00;96912.84;5013971;28;20030;-79
2022/02/03 02:07:11;;;;;;;127.05;58.67;;;;;;;1.42;100.00;96904.22;4983920;28;20037;-80
2022/02/03 02:13:06;;;;;;;119.75;55.53;;;;;;;1.40;100.00;96916.59;5014934;28;20041;-79
2022/02/03 02:16:03;;;;;;;114.82;53.40;;;;;;;1.29;100.00;96902.97;5013635;28;20037;-79
2022/02/03 02:18:54;;;;;;;116.35;52.38;;;;;;;1.31;100.00;96922.19;4989691;28;20026;-79
2022/02/03 02:43:51;;;;;;;107.43;51.88;;;;;;;1.74;100.00;96946.97;5011718;28;20500;-79
2022/02/03 02:46:37;;;;;;;112.53;54.03;;;;;;;1.77;100.00;96941.59;4997727;28;20060;-78
2022/02/03 02:49:13;;;;;;;120.97;54.45;;;;;;;1.74;100.00;96958.41;5015369;28;20033;-79
2022/02/03 02:51:43;;;;;;;130.00;57.33;;;;;;;1.64;100.00;96952.59;5031964;28;20405;-79
2022/02/03 02:57:18;;;;;;;112.60;52.95;;;;;;;1.84;100.00;96958.91;5012625;28;20026;-79
2022/02/03 03:33:37;;;;;;;40.67;21.67;;;;;;;2.66;100.00;96991.75;5015997;28;20091;-78
2022/02/03 03:36:10;;;;;;;43.60;22.98;;;;;;;2.69;100.00;96993.41;5014614;28;20069;-79
2022/02/03 03:38:40;;;;;;;42.47;20.30;;;;;;;2.87;100.00;97010.28;5009244;28;20038;-78
2022/02/03 03:41:06;;;;;;;37.13;16.42;;;;;;;2.73;100.00;96995.88;4995606;28;20037;-79
2022/02/03 03:43:43;;;;;;;33.28;16.58;;;;;;;2.92;100.00;97011.84;4991851;28;20039;-79
2022/02/03 03:46:21;;;;;;;26.60;15.23;;;;;;;2.95;100.00;97011.72;5000135;28;20026;-78
2022/02/03 03:48:55;;;;;;;34.08;16.77;;;;;;;2.88;100.00;97009.38;5012610;28;20084;-79
2022/02/03 03:51:39;;;;;;;32.10;15.93;;;;;;;3.01;100.00;97023.81;5025862;28;20034;-79
2022/02/03 03:54:08;;;;;;;30.70;16.23;;;;;;;3.00;100.00;97015.00;4995030;28;20030;-79
2022/02/03 03:56:52;;;;;;;30.33;15.07;;;;;;;3.02;100.00;97020.22;4995490;28;20489;-80
2022/02/03 04:31:41;;;;;;;28.25;13.75;;;;;;;3.13;99.62;97077.00;5011678;28;20108;-79
2022/02/03 04:40:49;;;;;;;23.65;13.27;;;;;;;3.06;99.24;97087.88;4991651;28;20038;-80
2022/02/03 04:51:50;;;;;;;27.30;14.02;;;;;;;3.18;96.49;97113.78;4992331;28;20485;-78
2022/02/03 04:58:57;;;;;;;21.85;12.05;;;;;;;3.27;95.35;97130.16;4991527;28;20064;-77
2022/02/03 05:00:54;;;;;;;26.40;14.25;;;;;;;3.27;95.09;97124.00;5000972;28;20601;-79
2022/02/03 05:06:26;;;;;;;34.78;15.40;;;;;;;3.40;94.87;97146.38;5012069;28;20038;-78
2022/02/03 05:45:25;;;;;;;25.20;13.15;;;;;;;3.19;94.68;97190.38;5010537;28;20033;-79
2022/02/03 05:48:39;;;;;;;27.77;15.00;;;;;;;3.16;95.55;97206.34;4997371;28;20033;-78
2022/02/03 06:13:13;;;;;;;42.03;20.75;;;;;;;3.57;92.90;97254.94;4954669;28;20034;-79
2022/02/03 06:23:43;;;;;;;45.72;21.88;;;;;;;3.85;88.07;97281.16;4993485;28;20037;-79
2022/02/03 06:29:02;;;;;;;31.92;18.02;;;;;;;3.65;87.99;97268.75;5014467;28;20056;-79
2022/02/03 06:31:41;;;;;;;31.15;16.40;;;;;;;3.75;88.84;97291.25;4997544;28;20022;-79
2022/02/03 06:34:06;;;;;;;28.15;14.70;;;;;;;3.93;86.79;97299.38;4996738;28;20095;-78
2022/02/03 06:36:33;;;;;;;24.70;14.02;;;;;;;3.90;85.91;97283.66;4997309;28;20108;-79
2022/02/03 06:38:59;;;;;;;25.58;14.32;;;;;;;3.99;86.78;97301.78;4980187;28;20029;-80
2022/02/03 06:41:25;;;;;;;25.83;14.35;;;;;;;4.18;85.34;97310.72;4980897;28;20030;-80
2022/02/03 06:43:51;;;;;;;26.50;14.10;;;;;;;4.28;83.40;97307.63;4980608;28;20117;-79
2022/02/03 06:46:17;;;;;;;22.67;12.10;;;;;;;4.06;82.14;97311.22;5014260;28;20065;-81
2022/02/03 06:48:50;;;;;;;25.13;13.45;;;;;;;3.87;83.39;97310.22;4994572;28;20022;-85
2022/02/03 06:51:24;;;;;;;28.70;15.30;;;;;;;3.96;83.20;97325.72;4992303;28;20093;-86
2022/02/03 06:53:55;;;;;;;23.60;13.38;;;;;;;3.93;82.75;97333.78;4984709;28;20045;-83
2022/02/03 06:56:38;;;;;;;33.10;16.23;;;;;;;3.84;82.57;97335.00;4994859;28;20037;-83
2022/02/03 06:59:08;;;;;;;22.92;12.45;;;;;;;3.77;82.97;97336.16;4984836;28;20030;-84
2022/02/03 07:01:38;;;;;;;26.27;14.05;;;;;;;3.96;83.08;97341.59;4998681;28;20033;-84
2022/02/03 07:04:14;;;;;;;25.65;11.90;;;;;;;4.06;81.59;97329.75;4999103;28;20405;-84
2022/02/03 07:06:40;;;;;;;23.95;11.63;;;;;;;4.14;79.97;97341.75;4984442;28;20033;-83
2022/02/03 07:09:08;;;;;;;19.10;10.30;;;;;;;4.01;80.05;97350.22;4996979;28;20096;-84
2022/02/03 07:11:36;;;;;;;20.33;10.70;;;;;;;4.12;80.00;97342.72;4991565;28;20502;-85
2022/02/03 07:14:02;;;;;;;13.85;7.35;;;;;;;4.06;79.55;97354.38;4997317;28;20100;-85
2022/02/03 07:16:29;;;;;;;12.73;6.90;;;;;;;4.05;79.87;97362.41;4989165;28;20038;-83
2022/02/03 07:18:55;;;;;;;14.60;7.68;;;;;;;3.72;80.84;97323.09;4976170;28;20042;-85
2022/02/03 07:21:21;;;;;;;11.48;6.07;;;;;;;3.89;79.47;97355.97;4985332;28;20046;-83
2022/02/03 07:23:47;;;;;;;11.10;5.13;;;;;;;3.97;79.82;97370.63;4986947;28;20486;-83
2022/02/03 07:26:12;;;;;;;15.93;6.95;;;;;;;4.04;80.10;97371.25;4996384;28;20030;-83
2022/02/03 07:28:38;;;;;;;18.92;10.57;;;;;;;3.83;80.11;97352.66;5007499;28;20050;-78
2022/02/03 07:31:05;;;;;;;28.88;12.82;;;;;;;4.07;80.21;97377.28;5015663;28;20052;-80
2022/02/03 07:33:32;;;;;;;27.20;13.77;;;;;;;4.03;80.54;97366.91;5015328;28;20060;-79
2022/02/03 07:35:58;;;;;;;22.70;11.45;;;;;;;3.91;80.02;97346.22;5033475;28;20033;-80
2022/02/03 07:38:23;;;;;;;20.05;10.32;;;;;;;3.96;79.79;97363.63;5015080;28;20037;-81
2022/02/03 07:40:50;;;;;;;19.80;10.63;;;;;;;4.11;79.65;97396.56;5015365;28;20044;-80
2022/02/03 07:43:16;;;;;;;18.70;10.77;;;;;;;4.11;80.04;97378.03;5015002;28;20473;-80
2022/02/03 07:45:41;;;;;;;19.88;10.60;;;;;;;4.12;78.97;97363.91;4998926;28;20029;-80
2022/02/03 07:48:07;;;;;;;19.13;10.10;;;;;;;4.20;78.79;97398.84;5014975;28;20029;-77
2022/02/03 07:50:33;;;;;;;19.55;10.05;;;;;;;4.28;78.98;97410.00;5014871;28;20029;-80
2022/02/03 07:52:58;;;;;;;22.35;12.25;;;;;;;4.25;78.02;97370.41;5015057;28;20032;-78
2022/02/03 07:55:24;;;;;;;25.25;12.00;;;;;;;4.56;78.25;97418.56;5014710;28;20026;-80
2022/02/03 07:57:57;;;;;;;30.13;14.35;;;;;;;4.31;75.99;97368.38;5032957;28;20026;-79
2022/02/03 08:00:24;;;;;;;24.83;13.32;;;;;;;4.58;75.90;97384.97;4999060;28;20051;-79
2022/02/03 08:02:50;;;;;;;24.80;12.52;;;;;;;4.75;75.12;97423.97;4998329;28;20065;-79
2022/02/03 08:05:19;;;;;;;25.17;12.98;;;;;;;4.50;75.42;97383.53;5032244;28;20090;-79
2022/02/03 08:07:55;;;;;;;17.60;9.45;;;;;;;4.71;74.77;97430.31;4998793;28;20028;-80
2022/02/03 08:10:40;;;;;;;19.70;9.15;;;;;;;4.74;74.30;97432.84;4998612;28;20044;-79
2022/02/03 08:13:11;;;;;;;28.17;12.70;;;;;;;4.72;74.69;97413.50;5000365;28;20037;-79
2022/02/03 08:15:39;;;;;;;29.20;13.77;;;;;;;4.82;74.12;97434.28;5014409;28;20116;-80
2022/02/03 08:18:10;;;;;;;28.92;12.95;;;;;;;4.89;74.55;97441.03;5032168;28;20036;-78
2022/02/03 08:20:45;;;;;;;28.02;14.20;;;;;;;5.01;74.41;97452.94;4999024;28;20037;-79
2022/02/03 08:23:27;;;;;;;28.38;13.15;;;;;;;4.90;74.66;97439.25;5015149;28;20033;-78
2022/02/03 08:26:05;;;;;;;23.23;11.15;;;;;;;5.02;73.70;97438.75;5030635;28;20029;-79
2022/02/03 08:29:31;;;;;;;22.80;11.13;;;;;;;5.14;72.69;97461.22;5031623;28;20048;-79
2022/02/03 08:31:25;;;;;;;22.25;11.55;;;;;;;5.09;72.62;97444.66;5024709;28;20037;-80
2022/02/03 08:33:53;;;;;;;29.67;12.07;;;;;;;5.19;73.22;97473.38;4994594;28;20030;-79
2022/02/03 08:36:20;;;;;;;35.17;14.82;;;;;;;5.40;73.12;97479.56;4994627;28;20123;-78
2022/02/03 08:38:53;;;;;;;42.55;22.67;;;;;;;5.47;72.46;97459.81;4994789;28;20018;-80
2022/02/03 08:41:20;;;;;;;34.80;17.00;;;;;;;5.77;72.08;97471.72;4994991;28;20053;-79
2022/02/03 08:43:46;;;;;;;31.45;13.55;;;;;;;5.48;69.97;97462.38;4994551;28;20026;-79
2022/02/03 08:46:15;;;;;;;33.72;14.52;;;;;;;5.52;71.06;97465.75;5012345;28;20026;-78
2022/02/03 08:48:41;;;;;;;36.35;14.57;;;;;;;5.54;70.73;97478.97;5012406;28;20022;-79
2022/02/03 08:51:08;;;;;;;31.85;13.63;;;;;;;5.67;71.27;97494.28;4994911;28;20037;-79
2022/02/03 08:53:42;;;;;;;29.23;14.23;;;;;;;5.55;70.36;97478.03;5012066;28;20115;-80
2022/02/03 09:33:08;;;;;;;20.00;10.70;;;;;;;5.49;69.64;97508.34;4994567;28;20030;-79
2022/02/03 09:55:39;;;;;;;20.85;10.90;;;;;;;5.69;69.63;97537.50;5013117;28;20021;-80
2022/02/03 09:58:28;;;;;;;20.23;11.23;;;;;;;5.92;69.51;97533.91;5035079;28;20034;-82
2022/02/03 10:03:47;;;;;;;22.85;11.32;;;;;;;6.10;68.81;97545.50;5033188;28;20116;-74
2022/02/03 10:06:15;;;;;;;20.90;12.60;;;;;;;6.15;68.86;97547.06;4983860;28;20037;-73
2022/02/03 10:08:53;;;;;;;18.90;9.73;;;;;;;6.00;68.18;97559.19;4996892;28;20513;-81
2022/02/03 10:11:23;;;;;;;16.55;8.68;;;;;;;6.05;69.07;97560.78;4998301;28;20029;-77
2022/02/03 10:14:02;;;;;;;14.45;8.73;;;;;;;6.20;68.03;97560.97;4980406;28;20068;-75
2022/02/03 10:16:33;;;;;;;20.23;11.45;;;;;;;6.50;68.39;97562.25;5009954;28;20143;-80
2022/02/03 10:19:15;;;;;;;22.20;13.55;;;;;;;6.60;66.90;97551.19;4997453;28;20552;-79
2022/02/03 10:21:42;;;;;;;41.53;21.00;;;;;;;6.81;66.68;97553.72;5006106;28;20060;-77
2022/02/03 10:24:10;;;;;;;37.08;19.80;;;;;;;6.84;66.96;97561.56;5002490;28;20038;-77
2022/02/03 10:26:40;;;;;;;30.35;16.25;;;;;;;6.72;65.37;97561.25;5001367;28;20071;-74
2022/02/03 10:29:08;;;;;;;30.13;15.95;;;;;;;6.78;65.54;97559.19;4989884;28;20033;-74
2022/02/03 10:31:37;;;;;;;31.27;17.13;;;;;;;7.01;65.45;97563.44;5000958;28;20034;-75
2022/02/03 10:34:08;;;;;;;40.83;22.40;;;;;;;7.08;66.62;97573.69;4996529;28;20026;-75
2022/02/03 10:36:58;;;;;;;51.25;25.65;;;;;;;6.96;66.64;97568.94;4996872;28;20383;-73
2022/02/03 11:03:24;;;;;;;23.67;13.27;;;;;;;7.38;62.83;97544.72;5001387;28;20059;-80
2022/02/03 11:06:08;;;;;;;28.17;12.27;;;;;;;7.47;62.76;97533.66;5005331;28;20379;-80
2022/02/03 11:08:47;;;;;;;30.02;14.43;;;;;;;7.74;61.42;97531.41;4991578;28;20023;-81
2022/02/03 11:11:18;;;;;;;24.58;12.23;;;;;;;7.83;59.10;97508.75;5017244;28;20021;-81
2022/02/03 11:13:43;;;;;;;22.75;11.60;;;;;;;7.90;58.54;97532.34;5015601;28;20054;-79
2022/02/03 11:16:11;;;;;;;25.55;14.65;;;;;;;7.99;58.31;97528.34;5015458;28;20545;-79
2022/02/03 11:18:39;;;;;;;28.02;15.05;;;;;;;8.02;57.10;97530.84;4998994;28;20030;-81
2022/02/03 11:21:04;;;;;;;20.35;10.73;;;;;;;7.86;57.10;97540.56;4999060;28;20125;-82
2022/02/03 11:23:37;;;;;;;17.38;9.95;;;;;;;7.49;57.81;97534.44;5015596;28;20110;-80
2022/02/03 11:26:11;;;;;;;14.23;8.23;;;;;;;7.79;56.38;97525.81;4993150;28;20068;-81
2022/02/03 11:29:08;;;;;;;14.80;8.70;;;;;;;7.62;59.33;97548.00;5012691;28;20402;-79
2022/02/03 12:05:35;;;;;;;15.80;9.38;;;;;;;7.27;61.78;97501.84;4975529;28;20513;-81
2022/02/03 12:27:03;;;;;;;14.73;8.35;;;;;;;6.89;59.99;97524.97;5013320;28;20057;-80
2022/02/03 12:30:25;;;;;;;17.45;9.05;;;;;;;7.13;60.39;97543.34;5007788;28;20029;-84
2022/02/03 12:36:57;;;;;;;16.60;8.15;;;;;;;7.24;60.14;97536.56;5011932;28;20025;-80
2022/02/03 12:38:54;;;;;;;20.83;11.45;;;;;;;7.90;59.22;97543.00;4933022;29;20038;-80
2022/02/03 12:41:23;;;;;;;17.48;9.70;;;;;;;7.82;59.89;97544.31;4901001;29;20161;-81
2022/02/03 12:43:58;;;;;;;22.85;9.88;;;;;;;7.52;60.22;97546.72;4940670;28;20065;-79
2022/02/03 12:46:25;;;;;;;17.48;8.82;;;;;;;7.22;61.27;97543.78;4995902;28;20028;-81
2022/02/03 12:48:55;;;;;;;15.48;9.00;;;;;;;7.28;61.77;97558.56;4994449;28;20108;-80
2022/02/03 12:54:43;;;;;;;15.80;7.32;;;;;;;6.83;64.37;97549.19;5012482;28;20049;-80
2022/02/03 12:57:08;;;;;;;22.38;9.15;;;;;;;6.63;66.79;97574.97;5004638;28;20436;-79
2022/02/03 12:59:34;;;;;;;10.88;6.35;;;;;;;6.22;71.12;97600.72;5013911;28;20057;-79
2022/02/03 13:02:09;;;;;;;10.75;5.88;;;;;;;5.75;74.38;97589.50;5013856;28;20467;-80
2022/02/03 13:04:35;;;;;;;12.95;6.38;;;;;;;5.62;76.56;97575.88;5013839;28;20120;-80
2022/02/03 13:07:08;;;;;;;15.95;6.25;;;;;;;5.48;77.86;97583.53;4997220;28;20061;-81
2022/02/03 13:09:41;;;;;;;13.30;6.53;;;;;;;5.32;78.85;97577.16;4987102;28;20032;-79
2022/02/03 13:12:37;;;;;;;9.85;6.40;;;;;;;5.40;79.74;97593.59;4999164;28;20030;-79
2022/02/03 13:15:07;;;;;;;7.43;5.32;;;;;;;5.26;80.69;97590.66;4998916;28;20445;-81
2022/02/03 13:17:37;;;;;;;9.73;6.32;;;;;;;5.19;81.28;97583.84;5003106;28;20061;-82
2022/02/03 13:20:16;;;;;;;11.48;6.18;;;;;;;5.15;82.64;97592.84;4998626;28;20426;-80
2022/02/03 13:28:12;;;;;;;17.63;9.27;;;;;;;5.62;83.80;97604.19;5009662;28;20424;-80
2022/02/03 13:33:06;;;;;;;13.45;6.53;;;;;;;6.68;77.60;97626.97;5015031;28;20064;-80
2022/02/03 13:35:49;;;;;;;10.73;6.47;;;;;;;6.57;76.47;97620.44;5013669;28;20489;-79
2022/02/03 13:38:40;;;;;;;7.82;5.82;;;;;;;6.39;77.61;97636.28;5015770;28;20517;-80
2022/02/03 13:41:15;;;;;;;11.52;5.90;;;;;;;5.69;79.65;97646.31;5020004;28;20507;-80
2022/02/03 13:43:42;;;;;;;11.27;6.97;;;;;;;5.65;81.85;97651.81;5000663;28;20021;-79
2022/02/03 13:46:12;;;;;;;9.23;5.80;;;;;;;5.37;84.26;97644.97;5000242;28;20033;-80
2022/02/03 13:48:40;;;;;;;10.00;5.85;;;;;;;5.01;88.91;97664.09;5017600;28;20125;-79
2022/02/03 13:51:10;;;;;;;16.50;8.77;;;;;;;4.95;93.08;97669.63;5016801;28;20049;-80
2022/02/03 13:53:45;;;;;;;12.23;5.95;;;;;;;4.69;96.07;97668.81;5016689;28;20611;-81
2022/02/03 14:28:54;;;;;;;31.65;17.55;;;;;;;4.18;100.00;97652.16;5018913;28;20040;-80
2022/02/03 14:31:20;;;;;;;25.45;12.85;;;;;;;4.15;99.25;97645.16;5016492;28;20037;-79
2022/02/03 14:33:45;;;;;;;38.25;19.20;;;;;;;4.18;98.40;97649.50;5000042;28;20037;-79
2022/02/03 14:36:15;;;;;;;42.13;20.20;;;;;;;4.20;99.30;97653.81;5000476;28;20099;-80
2022/02/03 14:38:47;;;;;;;29.60;14.90;;;;;;;4.27;100.00;97651.84;5016787;28;20041;-81
2022/02/03 14:43:39;;;;;;;27.92;14.10;;;;;;;4.61;94.04;97660.31;5016361;28;19909;-79
2022/02/03 14:46:07;;;;;;;34.70;19.50;;;;;;;4.75;94.48;97655.34;4999635;28;20037;-80
2022/02/03 14:48:35;;;;;;;36.22;19.73;;;;;;;4.81;92.52;97657.75;5000312;28;20033;-80
2022/02/03 14:51:05;;;;;;;34.97;18.10;;;;;;;4.82;91.64;97654.19;4999998;28;20179;-81
2022/02/03 14:53:47;;;;;;;42.78;23.58;;;;;;;4.98;89.27;97654.50;5000229;28;20036;-79
2022/02/03 14:59:00;;;;;;;36.50;19.88;;;;;;;4.96;86.70;97671.34;5020739;28;20044;-79
2022/02/03 15:01:30;;;;;;;37.95;21.52;;;;;;;4.94;85.36;97652.88;4999513;28;20040;-79
2022/02/03 15:03:58;;;;;;;44.28;24.27;;;;;;;5.02;84.68;97673.75;5011853;28;20029;-79
2022/02/03 15:06:26;;;;;;;42.38;22.90;;;;;;;4.59;87.26;97645.34;5000819;28;20493;-80
2022/02/03 15:09:13;;;;;;;39.17;21.23;;;;;;;4.43;85.67;97605.31;5012789;28;20430;-80
2022/02/03 15:14:14;;;;;;;24.60;15.05;;;;;;;4.49;84.88;97634.22;5022874;28;20037;-80
2022/02/03 15:16:39;;;;;;;31.15;18.23;;;;;;;4.64;86.06;97652.25;5002885;28;20490;-81
2022/02/03 15:19:06;;;;;;;27.30;16.13;;;;;;;4.76;84.86;97675.63;4995774;28;20039;-81
2022/02/03 15:21:32;;;;;;;32.65;18.80;;;;;;;4.76;86.11;97691.53;4991329;28;20078;-81
2022/02/03 15:23:58;;;;;;;29.08;18.60;;;;;;;4.84;84.15;97699.19;5014705;28;20037;-81
2022/02/03 15:26:24;;;;;;;30.13;18.95;;;;;;;4.68;87.45;97703.28;5015220;28;20041;-81
2022/02/03 15:28:50;;;;;;;65.32;32.20;;;;;;;4.33;89.73;97678.09;4979425;28;20045;-82
2022/02/03 15:31:20;;;;;;;33.25;20.83;;;;;;;4.42;90.30;97693.66;4964277;28;20108;-81
2022/02/03 15:33:53;;;;;;;21.88;12.93;;;;;;;4.36;92.44;97712.41;4979627;28;20482;-81
2022/02/03 15:36:19;;;;;;;26.80;14.75;;;;;;;4.30;93.85;97699.38;5005234;28;20030;-82
2022/02/03 15:38:48;;;;;;;24.60;13.13;;;;;;;4.30;90.33;97697.59;4989302;28;20103;-81
2022/02/03 15:41:28;;;;;;;47.22;26.85;;;;;;;4.27;92.96;97713.59;4991613;28;20138;-82
2022/02/03 15:43:59;;;;;;;41.78;21.83;;;;;;;4.06;95.77;97703.72;4982972;28;20093;-81
2022/02/03 15:46:26;;;;;;;48.83;26.35;;;;;;;4.21;95.22;97720.88;4981412;28;20085;-80
2022/02/03 15:56:12;;;;;;;36.58;18.58;;;;;;;4.10;97.18;97749.47;5006287;28;20025;-81
2022/02/03 15:57:02;;;;;;;76.88;37.53;;;;;;;4.25;92.69;97754.25;5000447;28;20113;-82
2022/02/03 16:02:25;;;;;;;48.05;25.35;;;;;;;4.03;97.47;97766.47;5012351;28;20091;-80
2022/02/03 16:18:33;;;;;;;32.60;17.35;;;;;;;3.18;100.00;97785.84;5008872;28;20132;-81
2022/02/03 16:21:10;;;;;;;33.67;19.70;;;;;;;3.12;100.00;97801.00;4988285;28;20056;-80
2022/02/03 16:40:55;;;;;;;58.53;28.38;;;;;;;2.34;100.00;97825.16;5000760;28;20466;-81
2022/02/03 16:51:03;;;;;;;125.55;61.85;;;;;;;2.18;100.00;97830.78;5007297;28;20559;-78
2022/02/03 16:53:28;;;;;;;168.55;78.68;;;;;;;2.04;100.00;97826.75;5010093;28;20037;-80
2022/02/03 16:55:56;;;;;;;258.60;121.25;;;;;;;2.04;100.00;97830.25;4999725;28;20036;-81
2022/02/03 16:58:22;;;;;;;234.43;115.38;;;;;;;1.93;100.00;97821.75;4984468;28;20044;-81
2022/02/03 17:00:48;;;;;;;349.42;183.88;;;;;;;2.18;100.00;97845.75;4995787;28;20030;-82
2022/02/03 17:03:14;;;;;;;444.20;231.52;;;;;;;2.10;100.00;97840.66;5000121;28;20029;-82
2022/02/03 17:05:40;;;;;;;274.83;131.95;;;;;;;2.19;100.00;97858.03;4985548;28;20524;-80
2022/02/03 17:08:05;;;;;;;123.50;57.28;;;;;;;2.08;100.00;97844.25;4987424;28;20022;-81
2022/02/03 17:10:31;;;;;;;99.65;45.35;;;;;;;2.04;100.00;97859.25;5000700;28;20410;-82
2022/02/03 17:12:57;;;;;;;101.10;49.97;;;;;;;1.96;100.00;97849.81;4990873;28;20045;-80
2022/02/03 17:15:23;;;;;;;148.32;72.63;;;;;;;2.01;100.00;97863.75;4988386;28;20025;-82
2022/02/03 17:17:52;;;;;;;107.60;49.03;;;;;;;1.94;100.00;97862.16;4993278;28;20552;-81
2022/02/03 17:20:25;;;;;;;99.15;47.53;;;;;;;2.04;100.00;97871.59;5010082;28;20029;-80
2022/02/03 17:22:53;;;;;;;119.43;56.55;;;;;;;1.98;100.00;97885.78;4992169;28;20511;-81
2022/02/03 17:25:46;;;;;;;118.85;55.55;;;;;;;1.85;100.00;97883.44;5002081;28;20493;-82
2022/02/03 17:28:15;;;;;;;125.95;58.13;;;;;;;1.79;100.00;97880.94;5001011;28;20531;-81
2022/02/03 17:31:10;;;;;;;132.18;62.15;;;;;;;1.78;100.00;97881.88;5003452;28;20108;-81
2022/02/03 18:09:00;;;;;;;151.32;73.22;;;;;;;2.61;97.32;97923.00;5004589;28;20040;-80
2022/02/03 18:19:56;;;;;;;184.60;90.13;;;;;;;2.53;96.96;97903.81;5003895;28;20109;-81
2022/02/03 18:52:46;;;;;;;129.95;64.30;;;;;;;2.94;84.92;97931.84;5010790;28;20528;-81
2022/02/03 19:00:43;;;;;;;215.32;100.10;;;;;;;3.22;79.72;97942.56;5001664;28;20351;-81
2022/02/03 19:23:25;;;;;;;223.80;99.05;;;;;;;3.09;80.18;97968.44;5001147;28;20063;-81
2022/02/03 20:08:16;;;;;;;72.30;34.78;;;;;;;3.28;73.89;97989.97;5006359;28;20048;-81
2022/02/03 20:10:46;;;;;;;86.40;40.70;;;;;;;3.10;76.64;97978.09;5001624;28;20489;-80
2022/02/03 20:13:11;;;;;;;132.70;62.50;;;;;;;3.20;73.85;97989.28;4994366;28;20412;-80
2022/02/03 20:15:41;;;;;;;82.63;39.60;;;;;;;3.08;75.67;97976.38;4996592;28;20034;-80
2022/02/03 20:18:17;;;;;;;83.72;38.35;;;;;;;2.90;77.14;97974.22;5005056;28;20042;-81
2022/02/03 20:20:43;;;;;;;73.13;35.13;;;;;;;2.77;79.05;97956.94;4992284;28;20091;-81
2022/02/03 20:23:13;;;;;;;77.60;38.67;;;;;;;2.72;78.56;97960.56;5010583;28;20116;-81
2022/02/03 20:25:57;;;;;;;111.80;48.85;;;;;;;2.55;78.72;97946.03;5000018;28;20174;-79
2022/02/03 20:28:24;;;;;;;136.93;61.75;;;;;;;2.66;80.07;97976.56;5001208;28;20053;-79
2022/02/03 20:30:49;;;;;;;123.22;58.63;;;;;;;2.65;82.68;97987.13;5003995;28;20497;-79
2022/02/03 20:33:15;;;;;;;73.43;35.05;;;;;;;2.59;80.98;97967.03;5003483;28;20045;-79
2022/02/03 20:35:41;;;;;;;69.82;33.03;;;;;;;2.51;79.94;97966.34;5002778;28;20033;-80
2022/02/03 20:38:07;;;;;;;70.68;34.78;;;;;;;2.54;79.57;97970.69;5002037;28;20092;-79
2022/02/03 20:40:32;;;;;;;131.40;63.95;;;;;;;2.62;78.07;97974.00;5005025;28;20118;-80
2022/02/03 20:42:58;;;;;;;64.38;31.88;;;;;;;2.69;78.00;97979.13;5004784;28;20037;-80
2022/02/03 20:45:26;;;;;;;92.22;45.42;;;;;;;2.74;77.21;97971.94;4999684;28;20041;-80
2022/02/03 20:47:52;;;;;;;134.93;65.45;;;;;;;2.72;79.71;97986.97;5002889;28;20053;-80
2022/02/03 20:50:20;;;;;;;113.43;54.85;;;;;;;2.50;81.31;97969.88;5002107;28;20026;-80
2022/02/03 20:52:47;;;;;;;101.75;47.78;;;;;;;2.54;81.89;97976.84;5005276;28;20026;-79
2022/02/03 20:55:13;;;;;;;128.15;58.83;;;;;;;2.51;81.61;97979.56;4979931;28;20030;-80
2022/02/03 20:57:39;;;;;;;128.00;54.63;;;;;;;2.50;79.83;97966.38;5000351;28;20029;-80
2022/02/03 21:05:13;;;;;;;106.15;48.78;;;;;;;2.44;80.80;97967.41;5001043;28;20026;-81
2022/02/03 21:07:40;;;;;;;85.23;39.57;;;;;;;2.32;84.56;97958.88;5005832;28;20483;-80
2022/02/03 21:10:10;;;;;;;135.15;54.35;;;;;;;2.27;82.59;97972.22;5008869;28;20787;-80
2022/02/03 21:12:35;;;;;;;108.30;46.03;;;;;;;2.17;80.21;97957.47;4988205;28;20088;-80
2022/02/03 21:15:01;;;;;;;136.65;64.22;;;;;;;2.17;80.41;97975.94;5000398;28;20026;-80
2022/02/03 21:17:30;;;;;;;112.35;51.00;;;;;;;2.21;77.92;97974.97;5006910;28;20044;-80
2022/02/03 21:20:04;;;;;;;127.90;61.38;;;;;;;2.24;78.30;97964.34;4988496;28;20041;-79
2022/02/03 21:22:29;;;;;;;132.70;60.80;;;;;;;2.23;81.95;97975.81;5005718;28;20115;-78
2022/02/03 21:25:01;;;;;;;105.45;45.00;;;;;;;2.22;79.23;97981.97;4996845;28;21868;-80
2022/02/03 21:27:29;;;;;;;107.03;47.92;;;;;;;2.21;77.87;97977.63;5003551;28;20052;-79
2022/02/03 21:29:55;;;;;;;101.53;44.25;;;;;;;2.22;79.33;97978.47;5010918;28;20029;-80
2022/02/03 21:32:21;;;;;;;83.55;38.55;;;;;;;2.24;79.73;97993.38;5008044;28;20033;-80
2022/02/03 21:34:50;;;;;;;91.60;40.78;;;;;;;2.15;80.50;97983.88;5006286;28;20034;-79
2022/02/03 21:37:16;;;;;;;128.50;54.30;;;;;;;2.10;79.40;97987.53;5012251;28;20036;-79
2022/02/03 21:39:42;;;;;;;101.97;43.97;;;;;;;2.18;79.13;97990.88;5010562;28;20045;-79
2022/02/03 21:42:07;;;;;;;74.60;33.22;;;;;;;2.16;78.26;97995.31;5013930;28;20068;-79
2022/02/03 21:44:33;;;;;;;74.80;34.17;;;;;;;2.21;76.83;97993.44;5010496;28;20091;-80
2022/02/03 21:46:58;;;;;;;42.83;19.50;;;;;;;2.24;76.58;97982.81;5008467;28;20041;-80
2022/02/03 21:49:24;;;;;;;49.63;23.30;;;;;;;2.33;76.48;98002.88;4994563;28;20030;-80
2022/02/03 21:51:53;;;;;;;66.88;32.13;;;;;;;2.28;76.61;97991.56;5013060;28;20026;-80
2022/02/03 21:54:19;;;;;;;61.78;28.45;;;;;;;2.36;77.30;98000.16;5007787;28;20124;-80
2022/02/03 21:56:45;;;;;;;55.35;24.27;;;;;;;2.41;75.90;98007.06;5007522;28;20125;-80
2022/02/03 21:59:11;;;;;;;65.47;28.67;;;;;;;2.27;77.88;97990.69;4994515;28;20033;-79
2022/02/03 22:01:40;;;;;;;66.00;29.52;;;;;;;2.36;76.78;98000.16;5009154;28;20033;-80
2022/02/03 22:04:10;;;;;;;54.70;25.25;;;;;;;2.39;76.88;97994.81;4996924;28;20104;-81
2022/02/03 22:06:35;;;;;;;53.97;26.05;;;;;;;2.34;78.28;97989.63;4989093;28;20401;-79
2022/02/03 22:09:01;;;;;;;56.72;24.55;;;;;;;2.40;74.69;97986.84;5007981;28;20030;-80
2022/02/03 22:11:26;;;;;;;53.53;25.30;;;;;;;2.40;74.60;97986.00;5010783;28;20576;-79